Time;durP1;ratioP1;P1;durP2;ratioP2;P2;SDS_P1;SDS_P2;PMS_P1;PMS_P2;Temp;Humidity;BMP_temperature;BMP_pressure;BME280_temperature;BME280_humidity;BME280_pressure;Samples;Min_cycle;Max_cycle;Signal;HPM_P1;HPM_P2
2021/08/17 00:02:22;;;;;;;;;15.00;14.00;;;;;32.23;25.94;100695.56;144162;611;131019;-79
2021/08/17 00:04:56;;;;;;;;;13.50;13.50;;;;;32.17;25.63;100705.28;144165;665;132012;-73
2021/08/17 00:07:30;;;;;;;;;12.50;12.50;;;;;32.12;26.22;100704.97;144152;575;132018;-77
2021/08/17 00:10:09;;;;;;;;;13.75;12.75;;;;;31.96;26.09;100703.28;144177;653;131021;-78
2021/08/17 00:12:43;;;;;;;;;11.00;10.50;;;;;31.81;26.81;100703.22;144160;713;132018;-79
2021/08/17 00:15:17;;;;;;;;;13.00;13.00;;;;;31.50;26.88;100701.41;144168;576;132010;-76
2021/08/17 00:17:50;;;;;;;;;10.00;10.00;;;;;31.37;26.69;100695.72;144150;717;131917;-76
2021/08/17 00:20:34;;;;;;;;;13.50;13.00;;;;;31.25;26.92;100703.44;144156;664;132010;-79
2021/08/17 00:23:10;;;;;;;;;9.00;9.00;;;;;31.10;27.19;100700.66;144144;637;132014;-84
2021/08/17 00:25:44;;;;;;;;;13.50;13.50;;;;;31.02;27.05;100697.97;144176;580;131020;-80
2021/08/17 00:28:18;;;;;;;;;11.75;11.50;;;;;30.85;27.55;100703.47;144156;628;132012;-86
2021/08/17 00:30:54;;;;;;;;;10.50;10.25;;;;;30.72;27.52;100701.28;144175;566;131021;-76
2021/08/17 00:33:27;;;;;;;;;12.00;12.00;;;;;30.76;28.19;100700.97;144146;613;132014;-74
2021/08/17 00:36:03;;;;;;;;;13.50;12.50;;;;;30.82;28.11;100700.25;144168;694;132020;-78
2021/08/17 00:38:43;;;;;;;;;13.50;13.50;;;;;30.85;27.39;100692.62;144167;648;132914;-73
2021/08/17 00:41:17;;;;;;;;;11.25;11.25;;;;;30.87;27.45;100693.28;144174;569;131020;-74
2021/08/17 00:43:51;;;;;;;;;11.25;9.50;;;;;30.89;27.47;100688.53;144155;591;132014;-73
2021/08/17 00:46:27;;;;;;;;;12.25;12.25;;;;;30.96;27.19;100685.97;144158;563;132008;-78
2021/08/17 00:49:01;;;;;;;;;13.50;11.75;;;;;30.99;26.63;100692.88;144157;641;131016;-78
2021/08/17 00:51:35;;;;;;;;;7.00;7.00;;;;;31.01;26.61;100691.66;144178;581;131021;-84
2021/08/17 00:54:09;;;;;;;;;9.50;8.75;;;;;30.97;27.03;100690.34;144158;644;131016;-80
2021/08/17 00:56:43;;;;;;;;;11.50;11.50;;;;;30.82;26.90;100695.66;144178;563;131020;-74
2021/08/17 00:59:19;;;;;;;;;10.50;10.00;;;;;30.94;27.09;100695.28;144158;586;131914;-74
2021/08/17 01:01:56;;;;;;;;;11.25;11.25;;;;;31.00;27.01;100689.16;144182;582;131012;-74
2021/08/17 01:04:29;;;;;;;;;14.50;11.25;;;;;31.13;26.26;100694.87;144171;586;131925;-85
2021/08/17 01:07:12;;;;;;;;;12.50;9.25;;;;;31.24;25.79;100699.03;144169;676;131020;-78
2021/08/17 01:09:48;;;;;;;;;10.75;10.00;;;;;31.18;25.91;100697.03;144154;605;131019;-78
2021/08/17 01:12:22;;;;;;;;;10.00;10.00;;;;;31.07;26.48;100695.59;144161;643;131020;-76
2021/08/17 01:14:56;;;;;;;;;10.25;10.25;;;;;31.08;26.29;100685.59;144158;569;131914;-77
2021/08/17 01:17:30;;;;;;;;;12.25;12.25;;;;;31.08;26.56;100686.41;144176;576;131036;-75
2021/08/17 01:20:04;;;;;;;;;9.75;9.25;;;;;31.00;26.21;100686.44;144151;599;132016;-80
2021/08/17 01:22:38;;;;;;;;;11.50;9.75;;;;;30.97;26.86;100684.91;144166;570;132010;-86
2021/08/17 01:25:12;;;;;;;;;9.00;9.00;;;;;31.01;26.62;100685.41;144156;570;132914;-84
2021/08/17 01:27:48;;;;;;;;;13.75;13.75;;;;;31.05;26.37;100675.94;144169;593;132012;-81
2021/08/17 01:30:22;;;;;;;;;11.00;10.00;;;;;31.15;26.00;100679.28;144165;574;132914;-81
2021/08/17 01:32:55;;;;;;;;;8.75;8.75;;;;;31.10;25.51;100678.09;144164;569;132012;-80
2021/08/17 01:35:30;;;;;;;;;9.25;9.25;;;;;31.01;25.48;100672.69;144158;566;132020;-85
2021/08/17 01:38:08;;;;;;;;;9.50;7.50;;;;;30.99;25.90;100682.88;144155;696;132012;-75
2021/08/17 01:40:42;;;;;;;;;12.00;10.50;;;;;30.99;25.59;100682.03;144145;576;132014;-77
2021/08/17 01:43:16;;;;;;;;;14.25;11.25;;;;;30.87;26.27;100674.31;144177;587;131031;-81
2021/08/17 01:46:09;;;;;;;;;8.00;8.00;;;;;30.91;26.21;100674.81;144153;558;132915;-82
2021/08/17 01:48:44;;;;;;;;;10.00;10.00;;;;;31.01;25.96;100677.28;144174;664;131020;-79
2021/08/17 01:51:17;;;;;;;;;10.00;10.00;;;;;31.14;26.00;100677.59;144149;620;132014;-83
2021/08/17 01:53:51;;;;;;;;;9.00;8.25;;;;;31.12;25.44;100687.75;144168;679;132012;-78
2021/08/17 01:56:25;;;;;;;;;8.00;8.00;;;;;31.03;25.22;100678.00;144169;603;131914;-80
2021/08/17 01:58:59;;;;;;;;;13.50;9.50;;;;;30.93;25.42;100675.44;144172;585;132012;-80
2021/08/17 02:01:34;;;;;;;;;10.75;8.75;;;;;30.85;26.03;100681.78;144152;768;132012;-80
2021/08/17 02:04:10;;;;;;;;;10.75;9.75;;;;;30.75;25.56;100678.44;144149;580;132012;-85
2021/08/17 02:06:44;;;;;;;;;9.50;7.75;;;;;30.60;26.21;100677.50;144147;611;132020;-88
2021/08/17 02:09:18;;;;;;;;;7.50;7.50;;;;;30.39;26.23;100684.28;144175;600;132012;-84
2021/08/17 02:11:52;;;;;;;;;9.25;8.25;;;;;30.26;25.95;100687.53;144152;563;132012;-79
2021/08/17 02:14:26;;;;;;;;;12.25;10.75;;;;;30.23;26.14;100670.81;144165;578;132011;-77
2021/08/17 02:17:00;;;;;;;;;12.00;9.75;;;;;30.16;26.50;100666.06;144148;651;132020;-82
2021/08/17 02:19:34;;;;;;;;;10.50;10.00;;;;;30.07;26.20;100666.25;144174;586;132010;-79
2021/08/17 02:22:08;;;;;;;;;9.00;8.50;;;;;29.96;26.79;100670.16;144162;565;132021;-80
2021/08/17 02:24:42;;;;;;;;;9.00;9.00;;;;;29.71;26.86;100670.16;144165;674;132010;-77
2021/08/17 02:27:16;;;;;;;;;12.25;12.25;;;;;29.73;26.49;100660.03;144154;597;131914;-77
2021/08/17 02:29:50;;;;;;;;;7.75;7.75;;;;;29.71;26.33;100659.34;144159;617;132010;-79
2021/08/17 02:32:24;;;;;;;;;6.25;6.25;;;;;29.70;26.51;100663.03;144140;564;133012;-78
2021/08/17 02:34:59;;;;;;;;;9.50;9.50;;;;;29.92;26.48;100660.69;144174;571;132010;-80
2021/08/17 02:37:33;;;;;;;;;8.00;8.00;;;;;30.22;25.78;100664.53;144149;668;132012;-88
2021/08/17 02:40:12;;;;;;;;;7.75;7.75;;;;;30.44;24.95;100663.00;144168;571;132012;-75
2021/08/17 02:42:49;;;;;;;;;7.75;7.75;;;;;30.42;25.27;100654.16;144153;569;132942;-80
2021/08/17 02:45:23;;;;;;;;;9.00;9.00;;;;;30.49;24.86;100662.47;144178;578;131012;-80
2021/08/17 02:48:01;;;;;;;;;9.25;7.50;;;;;30.47;25.11;100665.34;144169;606;132914;-76
2021/08/17 02:50:44;;;;;;;;;8.00;7.25;;;;;30.45;25.35;100670.06;144177;645;131022;-77
2021/08/17 02:53:18;;;;;;;;;10.00;7.75;;;;;30.47;25.12;100672.59;144152;577;131914;-75
2021/08/17 02:55:52;;;;;;;;;11.00;10.00;;;;;30.34;24.94;100665.84;144160;641;131020;-78
2021/08/17 02:58:26;;;;;;;;;11.25;9.00;;;;;30.17;25.22;100672.34;144157;573;131014;-74
2021/08/17 03:01:00;;;;;;;;;6.75;6.75;;;;;30.36;25.03;100668.41;144178;574;131012;-74
2021/08/17 03:03:34;;;;;;;;;8.25;7.00;;;;;30.34;25.19;100668.56;144155;613;132914;-77
2021/08/17 03:06:08;;;;;;;;;6.50;6.50;;;;;30.22;25.39;100675.34;144178;581;131021;-76
2021/08/17 03:08:42;;;;;;;;;6.25;6.25;;;;;30.05;25.59;100669.16;144156;588;132914;-77
2021/08/17 03:11:16;;;;;;;;;8.75;8.00;;;;;29.96;25.59;100672.88;144177;594;131020;-74
2021/08/17 03:13:50;;;;;;;;;6.25;6.25;;;;;29.92;25.86;100668.81;144168;588;131017;-74
2021/08/17 03:16:23;;;;;;;;;8.00;7.75;;;;;29.90;25.57;100673.56;144174;565;131020;-82
2021/08/17 03:18:57;;;;;;;;;7.00;7.00;;;;;29.80;26.12;100671.84;144155;616;131914;-80
2021/08/17 03:21:32;;;;;;;;;8.50;7.50;;;;;29.73;25.92;100667.28;144160;611;131021;-76
2021/08/17 03:24:06;;;;;;;;;7.75;7.75;;;;;29.69;26.36;100669.50;144153;639;131914;-81
2021/08/17 03:26:40;;;;;;;;;7.00;7.00;;;;;29.56;25.78;100669.16;144174;606;131022;-76
2021/08/17 03:29:14;;;;;;;;;7.50;7.50;;;;;29.41;26.02;100668.97;144153;569;131863;-77
2021/08/17 03:31:48;;;;;;;;;9.00;9.00;;;;;29.37;25.91;100672.00;144175;582;131020;-79
2021/08/17 03:34:22;;;;;;;;;9.50;8.25;;;;;29.33;26.54;100672.50;144156;629;131914;-75
2021/08/17 03:36:56;;;;;;;;;8.00;8.00;;;;;29.08;27.60;100672.41;144174;609;131023;-78
2021/08/17 03:39:30;;;;;;;;;10.75;10.75;;;;;28.80;28.57;100672.69;144169;565;131020;-74
2021/08/17 03:42:04;;;;;;;;;11.75;10.75;;;;;28.97;28.03;100675.44;144170;614;131021;-77
2021/08/17 03:44:37;;;;;;;;;10.75;10.75;;;;;29.13;27.96;100674.63;144152;575;132915;-75
2021/08/17 03:47:11;;;;;;;;;11.50;11.50;;;;;29.19;27.71;100674.81;144154;569;132012;-80
2021/08/17 03:49:45;;;;;;;;;7.75;7.75;;;;;29.29;27.40;100679.25;144154;612;131914;-79
2021/08/17 03:52:19;;;;;;;;;10.25;9.50;;;;;29.41;27.23;100677.91;144167;626;132012;-83
2021/08/17 03:54:54;;;;;;;;;10.25;8.50;;;;;29.62;26.90;100676.56;144147;669;132014;-80
2021/08/17 03:57:28;;;;;;;;;9.00;9.00;;;;;29.70;26.66;100679.28;144172;570;132012;-89
2021/08/17 04:00:03;;;;;;;;;8.75;8.75;;;;;29.71;25.74;100683.69;144144;586;132014;-80
2021/08/17 04:02:37;;;;;;;;;9.50;6.75;;;;;29.69;25.60;100677.59;144174;617;132010;-82
2021/08/17 04:05:12;;;;;;;;;10.25;9.75;;;;;29.67;25.98;100676.91;144161;611;133019;-81
2021/08/17 04:07:46;;;;;;;;;12.00;10.00;;;;;29.65;26.37;100678.94;144176;577;131020;-86
2021/08/17 04:10:20;;;;;;;;;9.50;9.50;;;;;29.66;26.01;100680.63;144149;569;132915;-77
2021/08/17 04:12:54;;;;;;;;;13.00;11.00;;;;;29.73;26.38;100669.97;144157;569;131020;-78
2021/08/17 04:15:28;;;;;;;;;10.00;8.50;;;;;29.78;26.47;100678.44;144155;565;131914;-81
2021/08/17 04:18:02;;;;;;;;;7.00;7.00;;;;;29.83;26.36;100679.62;144172;663;131029;-86
2021/08/17 04:20:36;;;;;;;;;8.50;8.50;;;;;29.82;25.91;100683.31;144149;624;132915;-85
2021/08/17 04:23:10;;;;;;;;;11.25;8.25;;;;;29.66;26.56;100686.03;144173;586;131022;-81
2021/08/17 04:25:44;;;;;;;;;9.25;8.25;;;;;29.56;26.55;100679.97;144144;604;132020;-84
2021/08/17 04:28:18;;;;;;;;;11.50;10.75;;;;;29.50;27.46;100676.09;144170;608;131021;-77
2021/08/17 04:30:52;;;;;;;;;15.00;12.75;;;;;29.46;27.45;100680.97;144157;608;132914;-75
2021/08/17 04:33:26;;;;;;;;;9.00;9.00;;;;;29.44;27.51;100676.75;144164;599;132012;-84
2021/08/17 04:36:00;;;;;;;;;8.50;8.00;;;;;29.42;27.61;100676.06;144150;571;132021;-83
2021/08/17 04:38:34;;;;;;;;;10.00;10.00;;;;;29.51;28.06;100675.91;144155;601;132010;-83
2021/08/17 04:41:08;;;;;;;;;10.25;10.25;;;;;29.56;27.97;100669.16;144151;709;132012;-82
2021/08/17 04:43:45;;;;;;;;;15.75;13.25;;;;;29.63;28.21;100670.16;144171;634;132010;-78
2021/08/17 04:46:20;;;;;;;;;13.00;10.25;;;;;29.76;28.84;100670.50;144150;598;132914;-80
2021/08/17 04:48:54;;;;;;;;;7.25;6.00;;;;;29.98;28.18;100676.25;144173;582;132012;-86
2021/08/17 04:51:27;;;;;;;;;10.25;9.00;;;;;30.13;28.41;100679.12;144151;591;132020;-82
2021/08/17 04:54:01;;;;;;;;;12.50;11.50;;;;;30.36;29.07;100671.13;144170;574;132012;-76
2021/08/17 04:56:35;;;;;;;;;11.50;8.75;;;;;30.60;28.75;100672.91;144165;616;131020;-78
2021/08/17 04:59:10;;;;;;;;;11.00;10.75;;;;;30.75;27.74;100669.47;144175;577;131020;-77
2021/08/17 05:01:44;;;;;;;;;10.00;10.00;;;;;30.87;27.63;100674.31;144153;586;132014;-77
2021/08/17 05:04:18;;;;;;;;;9.00;9.00;;;;;31.03;27.98;100675.28;144150;628;132012;-76
2021/08/17 05:06:51;;;;;;;;;9.50;9.50;;;;;31.17;27.51;100670.97;144155;761;132012;-78
2021/08/17 05:09:25;;;;;;;;;11.00;11.00;;;;;31.31;26.84;100680.19;144171;579;132010;-78
2021/08/17 05:11:59;;;;;;;;;16.50;16.50;;;;;31.34;27.34;100680.69;144154;573;131915;-80
2021/08/17 05:14:33;;;;;;;;;13.50;13.00;;;;;31.45;27.45;100679.38;144167;604;132020;-75
2021/08/17 05:17:07;;;;;;;;;15.50;13.00;;;;;31.59;28.00;100687.78;144155;644;131913;-78
2021/08/17 05:19:41;;;;;;;;;13.50;12.75;;;;;31.84;28.03;100685.75;144176;607;131023;-77
2021/08/17 05:22:15;;;;;;;;;12.00;11.00;;;;;31.93;27.48;100690.03;144161;593;131914;-79
2021/08/17 05:24:49;;;;;;;;;9.00;8.00;;;;;32.00;27.97;100692.88;144169;593;132020;-78
2021/08/17 05:27:22;;;;;;;;;8.00;8.00;;;;;32.11;27.53;100695.16;144148;610;132019;-78
2021/08/17 05:29:56;;;;;;;;;12.50;12.00;;;;;32.19;26.90;100684.25;144153;576;132010;-78
2021/08/17 05:32:30;;;;;;;;;12.75;9.25;;;;;32.32;27.12;100690.91;144152;611;132018;-77
2021/08/17 05:35:04;;;;;;;;;13.00;11.00;;;;;32.48;26.45;100693.41;144177;588;131021;-74
2021/08/17 05:37:38;;;;;;;;;14.25;12.00;;;;;32.64;26.16;100695.06;144154;699;132914;-74
2021/08/17 05:40:13;;;;;;;;;12.50;11.25;;;;;32.79;26.74;100695.09;144170;628;132012;-80
2021/08/17 05:42:47;;;;;;;;;14.00;12.50;;;;;32.93;26.45;100695.25;144149;672;132915;-77
2021/08/17 05:45:21;;;;;;;;;11.00;9.25;;;;;33.12;26.17;100694.69;144167;607;132022;-77
2021/08/17 05:47:55;;;;;;;;;11.50;11.50;;;;;33.29;26.55;100698.00;144157;585;132914;-76
2021/08/17 05:50:29;;;;;;;;;11.00;10.00;;;;;32.94;26.16;100697.78;144166;676;133012;-78
2021/08/17 05:53:03;;;;;;;;;9.50;9.00;;;;;32.91;26.97;100695.47;144157;597;132914;-79
2021/08/17 05:55:37;;;;;;;;;12.00;12.00;;;;;33.02;25.86;100689.53;144150;608;132012;-80
2021/08/17 05:58:11;;;;;;;;;14.25;14.00;;;;;32.95;26.93;100695.94;144154;580;132012;-78
2021/08/17 06:00:45;;;;;;;;;7.50;7.50;;;;;32.94;26.57;100696.97;144168;573;131022;-78
2021/08/17 06:03:19;;;;;;;;;12.00;11.50;;;;;33.12;26.38;100697.38;144153;612;133915;-78
2021/08/17 06:05:57;;;;;;;;;13.25;13.25;;;;;33.54;26.65;100703.06;144168;604;132012;-78
2021/08/17 06:08:31;;;;;;;;;11.25;10.50;;;;;34.06;25.88;100696.44;144153;575;131913;-78
2021/08/17 06:11:05;;;;;;;;;14.75;13.25;;;;;33.54;26.10;100695.72;144176;575;132013;-78
2021/08/17 06:13:39;;;;;;;;;13.75;12.75;;;;;33.08;26.79;100693.38;144167;673;131016;-77
2021/08/17 06:16:13;;;;;;;;;15.25;13.25;;;;;33.76;26.70;100698.44;144176;565;132020;-78
2021/08/17 06:18:50;;;;;;;;;13.00;13.00;;;;;34.13;26.08;100712.78;144141;640;132915;-78
2021/08/17 06:21:24;;;;;;;;;14.25;13.50;;;;;34.40;25.91;100710.28;144160;569;132010;-78
2021/08/17 06:23:58;;;;;;;;;13.75;11.50;;;;;34.56;26.22;100704.50;144153;614;132012;-73
2021/08/17 06:26:32;;;;;;;;;16.75;15.50;;;;;34.67;26.13;100713.19;144164;623;133008;-78
2021/08/17 06:29:06;;;;;;;;;11.25;11.25;;;;;34.75;26.40;100708.37;144151;571;132018;-74
2021/08/17 06:31:40;;;;;;;;;12.50;12.25;;;;;34.44;27.30;100708.03;144172;790;132013;-75
2021/08/17 06:34:14;;;;;;;;;12.50;11.75;;;;;34.53;27.42;100707.66;144154;590;132915;-74
2021/08/17 06:36:48;;;;;;;;;13.50;11.75;;;;;34.08;28.53;100712.56;144170;571;132010;-74
2021/08/17 06:39:22;;;;;;;;;13.00;13.00;;;;;34.11;28.74;100711.34;144164;705;132914;-75
2021/08/17 06:41:56;;;;;;;;;13.50;12.50;;;;;34.88;27.46;100706.78;144170;590;132012;-74
2021/08/17 06:44:30;;;;;;;;;13.00;12.00;;;;;34.46;27.86;100711.37;144153;713;132913;-73
2021/08/17 06:47:04;;;;;;;;;12.00;11.50;;;;;34.16;28.04;100712.41;144150;623;132010;-74
2021/08/17 06:49:38;;;;;;;;;11.50;11.50;;;;;34.86;27.32;100701.53;144153;597;131914;-73
2021/08/17 06:52:12;;;;;;;;;11.50;10.50;;;;;34.08;28.50;100709.84;144176;591;131020;-74
2021/08/17 06:54:46;;;;;;;;;12.00;11.00;;;;;34.45;27.88;100710.53;144147;571;132014;-74
2021/08/17 06:57:20;;;;;;;;;12.75;12.75;;;;;34.41;27.70;100711.97;144176;615;132010;-74
2021/08/17 06:59:54;;;;;;;;;10.00;10.00;;;;;33.68;28.07;100709.47;144156;570;131016;-75
2021/08/17 07:02:28;;;;;;;;;12.75;12.75;;;;;34.20;27.36;100707.41;144163;722;132012;-77
2021/08/17 07:05:02;;;;;;;;;15.25;12.75;;;;;34.05;27.48;100707.50;144165;563;132018;-76
2021/08/17 07:07:36;;;;;;;;;11.00;10.00;;;;;34.65;26.45;100704.34;144173;569;131022;-75
2021/08/17 07:10:11;;;;;;;;;11.00;11.00;;;;;35.24;25.86;100708.34;144154;604;131914;-74
2021/08/17 07:12:45;;;;;;;;;11.50;11.50;;;;;35.01;26.48;100704.09;144156;572;131020;-75
2021/08/17 07:15:19;;;;;;;;;12.00;12.00;;;;;34.34;26.55;100714.66;144148;581;132018;-75
2021/08/17 07:17:53;;;;;;;;;14.75;13.00;;;;;34.68;26.90;100709.38;144170;710;132012;-79
2021/08/17 07:20:27;;;;;;;;;11.00;11.00;;;;;33.82;28.04;100710.47;144147;649;132014;-77
2021/08/17 07:23:01;;;;;;;;;12.50;12.50;;;;;35.00;26.74;100702.41;144170;585;132013;-74
2021/08/17 07:25:39;;;;;;;;;12.00;12.00;;;;;35.34;26.62;100703.38;144159;579;132021;-73
2021/08/17 07:28:13;;;;;;;;;11.50;10.25;;;;;34.99;27.16;100699.91;144174;581;131020;-75
2021/08/17 07:30:47;;;;;;;;;11.50;11.50;;;;;35.86;26.29;100694.63;144168;618;132914;-74
2021/08/17 07:33:21;;;;;;;;;13.50;13.50;;;;;35.98;25.95;100695.69;144173;571;132010;-74
2021/08/17 07:35:55;;;;;;;;;12.75;12.75;;;;;34.93;25.82;100696.09;144146;563;132018;-73
2021/08/17 07:38:29;;;;;;;;;10.00;10.00;;;;;35.47;25.42;100691.63;144156;599;131022;-73
2021/08/17 07:41:05;;;;;;;;;11.25;11.25;;;;;35.52;25.61;100694.59;144152;588;132019;-73
2021/08/17 07:43:39;;;;;;;;;14.50;12.75;;;;;35.34;25.58;100697.94;144170;646;132010;-73
2021/08/17 07:46:13;;;;;;;;;10.00;10.00;;;;;34.76;25.80;100687.41;144148;588;132020;-73
2021/08/17 07:48:47;;;;;;;;;12.25;11.50;;;;;34.03;26.24;100698.69;144166;653;131021;-73
2021/08/17 07:51:21;;;;;;;;;11.00;11.00;;;;;34.64;25.92;100697.19;144149;577;132012;-73
2021/08/17 07:53:55;;;;;;;;;12.00;12.00;;;;;35.76;24.23;100695.03;144173;570;132010;-72
2021/08/17 07:56:29;;;;;;;;;7.50;7.50;;;;;34.92;24.64;100695.25;144159;613;132014;-73
2021/08/17 07:59:04;;;;;;;;;9.50;9.50;;;;;36.20;23.03;100693.53;144173;571;131020;-74
2021/08/17 08:01:38;;;;;;;;;9.50;9.25;;;;;36.14;23.17;100691.66;144145;638;132914;-71
2021/08/17 08:04:12;;;;;;;;;9.00;9.00;;;;;35.16;22.76;100698.50;144148;572;132010;-71
2021/08/17 08:06:46;;;;;;;;;9.75;9.75;;;;;35.67;22.71;100699.84;144145;611;132018;-71
2021/08/17 08:09:20;;;;;;;;;7.50;7.25;;;;;35.55;22.37;100691.44;144173;570;131021;-71
2021/08/17 08:11:54;;;;;;;;;8.00;7.75;;;;;36.19;22.18;100697.31;144146;620;132014;-71
2021/08/17 08:14:27;;;;;;;;;8.25;7.00;;;;;36.14;21.76;100688.91;144171;584;132008;-71
2021/08/17 08:17:01;;;;;;;;;9.00;8.75;;;;;36.14;21.81;100682.62;144152;591;132013;-71
2021/08/17 08:19:35;;;;;;;;;8.00;8.00;;;;;36.32;22.44;100692.91;144173;622;131020;-71
2021/08/17 08:22:10;;;;;;;;;9.25;9.25;;;;;35.30;23.55;100693.91;144167;707;132020;-71
2021/08/17 08:24:44;;;;;;;;;9.00;9.00;;;;;35.68;23.46;100681.59;144174;606;132010;-71
2021/08/17 08:27:17;;;;;;;;;10.75;10.00;;;;;35.63;23.94;100689.56;144154;622;131914;-71
2021/08/17 08:29:51;;;;;;;;;9.75;9.75;;;;;36.50;22.78;100673.94;144153;635;132012;-71
2021/08/17 08:32:25;;;;;;;;;10.00;10.00;;;;;36.87;22.58;100679.69;144153;595;132915;-71
2021/08/17 08:34:59;;;;;;;;;9.00;9.00;;;;;36.58;22.83;100670.97;144172;569;132010;-71
2021/08/17 08:37:33;;;;;;;;;6.25;6.25;;;;;36.47;22.07;100668.06;144146;625;132020;-71
2021/08/17 08:40:10;;;;;;;;;11.00;11.00;;;;;36.09;21.88;100672.34;144166;571;132012;-71
2021/08/17 08:42:44;;;;;;;;;10.75;9.75;;;;;35.72;22.36;100666.47;144148;632;132914;-71
2021/08/17 08:45:18;;;;;;;;;8.00;8.00;;;;;35.96;22.40;100664.16;144173;577;132010;-71
2021/08/17 08:47:52;;;;;;;;;7.50;7.50;;;;;36.02;22.32;100657.84;144161;610;132014;-71
2021/08/17 08:50:26;;;;;;;;;9.00;8.25;;;;;35.43;23.73;100663.06;144173;619;131020;-71
2021/08/17 08:52:59;;;;;;;;;10.75;10.00;;;;;34.46;22.45;100652.28;144144;609;132914;-70
2021/08/17 08:55:33;;;;;;;;;9.75;8.00;;;;;34.44;22.97;100658.97;144152;617;132010;-71
2021/08/17 08:58:07;;;;;;;;;7.25;7.25;;;;;34.54;23.62;100654.84;144154;590;132012;-70
2021/08/17 09:00:41;;;;;;;;;10.75;8.50;;;;;34.51;24.45;100654.37;144177;594;131020;-70
2021/08/17 09:03:15;;;;;;;;;9.75;8.00;;;;;34.50;24.18;100648.09;144152;569;131914;-71
2021/08/17 09:05:58;;;;;;;;;5.00;5.00;;;;;34.32;23.90;100653.25;144175;597;131020;-70
2021/08/17 09:08:32;;;;;;;;;8.00;8.00;;;;;34.34;22.99;100657.44;144151;601;131915;-72
2021/08/17 09:11:23;;;;;;;;;8.25;8.25;;;;;34.30;22.27;100649.88;144168;589;132012;-70
2021/08/17 09:13:57;;;;;;;;;8.50;8.25;;;;;34.74;21.71;100643.16;144166;572;131914;-71
2021/08/17 09:16:36;;;;;;;;;9.00;9.00;;;;;34.47;22.60;100640.31;144171;614;131021;-71
2021/08/17 09:19:32;;;;;;;;;9.00;9.00;;;;;34.56;21.85;100639.09;144153;565;131914;-70
2021/08/17 09:22:25;;;;;;;;;8.00;8.00;;;;;36.11;20.72;100631.16;144154;573;132011;-71
2021/08/17 09:25:02;;;;;;;;;8.75;8.00;;;;;37.38;19.10;100636.06;144150;569;132013;-71
2021/08/17 09:28:24;;;;;;;;;8.75;7.00;;;;;36.78;20.32;100639.12;144169;622;132012;-71
2021/08/17 09:30:58;;;;;;;;;6.75;6.75;;;;;37.20;18.45;100634.88;144151;566;131915;-70
2021/08/17 09:33:44;;;;;;;;;8.00;7.00;;;;;37.73;16.65;100633.63;144172;598;131020;-70
2021/08/17 09:36:17;;;;;;;;;8.00;6.00;;;;;37.64;16.20;100639.63;144151;646;132020;-70
2021/08/17 09:38:53;;;;;;;;;7.25;7.25;;;;;37.23;17.01;100628.97;144164;630;132012;-70
2021/08/17 09:41:29;;;;;;;;;6.00;6.00;;;;;37.51;16.42;100632.34;144164;569;132913;-70
2021/08/17 09:44:13;;;;;;;;;7.50;7.50;;;;;37.34;16.01;100623.87;144169;599;132012;-70
2021/08/17 09:46:47;;;;;;;;;5.25;5.25;;;;;37.11;16.40;100614.31;144150;611;132012;-71
2021/08/17 09:49:27;;;;;;;;;8.25;8.25;;;;;37.32;16.64;100612.28;144162;604;131020;-72
2021/08/17 09:52:11;;;;;;;;;7.75;7.75;;;;;37.11;17.49;100608.84;144151;591;132014;-71
2021/08/17 09:54:50;;;;;;;;;9.00;8.50;;;;;37.12;17.71;100607.78;144169;571;132012;-71
2021/08/17 09:57:24;;;;;;;;;7.75;7.75;;;;;37.17;17.55;100604.38;144147;584;132012;-71
2021/08/17 09:59:58;;;;;;;;;7.25;7.25;;;;;37.16;16.62;100600.81;144172;571;132011;-71
2021/08/17 10:02:32;;;;;;;;;6.50;6.25;;;;;37.12;17.10;100599.59;144151;569;132912;-71
2021/08/17 10:05:06;;;;;;;;;7.25;7.25;;;;;36.90;18.05;100590.91;144168;577;132010;-71
2021/08/17 10:07:43;;;;;;;;;10.00;9.50;;;;;37.09;17.40;100589.09;144164;601;132019;-71
2021/08/17 10:10:17;;;;;;;;;8.00;8.00;;;;;37.22;17.19;100594.47;144166;592;132010;-71
2021/08/17 10:12:51;;;;;;;;;7.00;7.00;;;;;37.14;16.68;100586.53;144144;642;132015;-71
2021/08/17 10:15:31;;;;;;;;;8.00;8.00;;;;;37.00;16.87;100585.75;144161;681;132013;-72
2021/08/17 10:18:05;;;;;;;;;7.00;6.50;;;;;37.73;16.04;100581.59;144151;638;132018;-69
2021/08/17 10:20:42;;;;;;;;;7.25;7.25;;;;;37.44;15.65;100585.87;144169;583;132010;-71
2021/08/17 10:23:24;;;;;;;;;8.75;7.50;;;;;37.84;14.99;100585.53;144152;615;132913;-70
2021/08/17 10:26:03;;;;;;;;;6.75;6.75;;;;;37.17;15.80;100579.75;144172;602;132010;-69
2021/08/17 10:28:43;;;;;;;;;6.75;5.50;;;;;37.78;15.02;100575.47;144145;603;132018;-70
2021/08/17 10:31:34;;;;;;;;;8.00;8.00;;;;;37.63;15.67;100577.72;144171;665;132012;-70
2021/08/17 10:34:13;;;;;;;;;6.00;6.00;;;;;37.32;15.63;100576.72;144164;679;132020;-69
2021/08/17 10:36:55;;;;;;;;;7.50;7.50;;;;;37.52;16.05;100571.91;144167;575;132012;-70
2021/08/17 10:39:38;;;;;;;;;8.25;8.25;;;;;37.39;16.13;100572.87;144150;584;132012;-68
2021/08/17 10:42:29;;;;;;;;;6.50;6.50;;;;;37.38;16.40;100575.84;144160;611;131020;-69
2021/08/17 10:45:28;;;;;;;;;7.75;6.75;;;;;37.76;16.40;100566.66;144149;635;131913;-68
2021/08/17 10:48:02;;;;;;;;;4.50;4.50;;;;;37.80;16.23;100565.13;144181;668;131020;-68
2021/08/17 10:50:37;;;;;;;;;9.75;8.75;;;;;37.76;16.73;100562.00;144153;590;131913;-71
2021/08/17 10:53:47;;;;;;;;;8.50;8.50;;;;;38.53;15.63;100537.91;144172;589;131021;-71
2021/08/17 10:56:26;;;;;;;;;9.00;9.00;;;;;37.47;16.72;100552.59;144153;563;132920;-70
2021/08/17 10:59:01;;;;;;;;;9.00;9.00;;;;;38.03;16.69;100536.19;144169;667;132010;-72
2021/08/17 11:01:46;;;;;;;;;7.75;7.75;;;;;37.98;16.48;100536.91;144165;655;132912;-71
2021/08/17 11:04:25;;;;;;;;;6.00;6.00;;;;;38.01;17.14;100533.69;144168;582;132020;-71
2021/08/17 11:07:01;;;;;;;;;7.25;7.25;;;;;38.25;16.27;100534.69;144147;569;133016;-70
2021/08/17 11:09:41;;;;;;;;;9.00;8.00;;;;;38.03;16.82;100523.34;144155;575;132012;-71
2021/08/17 11:12:15;;;;;;;;;9.00;9.00;;;;;37.39;17.04;100525.50;144145;604;132015;-72
2021/08/17 11:14:51;;;;;;;;;6.00;6.00;;;;;38.03;16.22;100527.97;144166;575;132010;-72
2021/08/17 11:17:25;;;;;;;;;6.00;6.00;;;;;38.56;16.31;100523.72;144153;645;131020;-72
2021/08/17 11:19:59;;;;;;;;;7.50;7.50;;;;;38.03;16.76;100517.03;144173;612;131021;-72
2021/08/17 11:22:37;;;;;;;;;7.25;7.25;;;;;37.87;16.39;100519.31;144154;570;131913;-72
2021/08/17 11:25:13;;;;;;;;;6.75;6.75;;;;;37.93;16.09;100521.16;144170;572;132010;-73
2021/08/17 11:27:48;;;;;;;;;10.00;8.25;;;;;37.81;15.82;100509.31;144164;712;132014;-75
2021/08/17 11:30:23;;;;;;;;;7.50;7.50;;;;;37.46;16.27;100509.03;144167;633;131021;-76
2021/08/17 11:33:01;;;;;;;;;6.50;5.75;;;;;37.30;16.26;100508.53;144155;624;132913;-75
2021/08/17 11:35:35;;;;;;;;;4.50;4.50;;;;;37.48;15.69;100502.22;144156;579;132010;-75
2021/08/17 11:38:09;;;;;;;;;7.25;7.25;;;;;37.59;15.34;100501.50;144149;663;132020;-76
2021/08/17 11:40:43;;;;;;;;;7.75;7.75;;;;;37.77;15.23;100497.13;144171;607;131020;-73
2021/08/17 11:43:20;;;;;;;;;7.75;7.75;;;;;37.40;15.44;100497.91;144149;623;132913;-76
2021/08/17 11:45:57;;;;;;;;;8.00;6.25;;;;;37.81;15.60;100492.00;144175;578;132021;-76
2021/08/17 11:48:31;;;;;;;;;6.25;6.25;;;;;37.77;15.96;100494.37;144152;565;132913;-73